Time;durP1;ratioP1;P1;durP2;ratioP2;P2;SDS_P1;SDS_P2;PMS_P1;PMS_P2;Temp;Humidity;BMP_temperature;BMP_pressure;BME280_temperature;BME280_humidity;BME280_pressure;Samples;Min_cycle;Max_cycle;Signal;HPM_P1;HPM_P2
2021/10/15 00:01:31;;;;;;;22.97;13.90;;;;;;;;;;5105364;28;20789;-79
2021/10/15 00:03:59;;;;;;;14.00;10.23;;;;;;;;;;5090919;28;20546;-80
2021/10/15 00:06:26;;;;;;;27.17;15.13;;;;;;;;;;5090116;28;20452;-80
2021/10/15 00:08:53;;;;;;;17.47;13.70;;;;;;;;;;5090852;28;20758;-80
2021/10/15 00:11:20;;;;;;;18.67;14.33;;;;;;;;;;5091081;28;20506;-80
2021/10/15 00:13:47;;;;;;;15.40;13.77;;;;;;;;;;5091178;28;20510;-80
2021/10/15 00:16:14;;;;;;;23.50;14.80;;;;;;;;;;5089675;28;20452;-80
2021/10/15 00:18:42;;;;;;;22.13;14.47;;;;;;;;;;5088284;28;20447;-80
2021/10/15 00:21:10;;;;;;;16.63;13.80;;;;;;;;;;5091816;28;20453;-80
2021/10/15 00:23:37;;;;;;;17.23;13.20;;;;;;;;;;5089664;28;20531;-80
2021/10/15 00:26:04;;;;;;;20.20;15.40;;;;;;;;;;5090473;28;20456;-79
2021/10/15 00:28:30;;;;;;;19.20;13.10;;;;;;;;;;5089727;28;20499;-80
2021/10/15 00:30:58;;;;;;;18.97;13.90;;;;;;;;;;5091422;28;20518;-80
2021/10/15 00:33:25;;;;;;;18.47;14.10;;;;;;;;;;5131992;27;20466;-80
2021/10/15 00:35:52;;;;;;;17.57;13.27;;;;;;;;;;5131604;27;20447;-80
2021/10/15 00:38:20;;;;;;;19.33;13.10;;;;;;;;;;5130953;27;20446;-80
2021/10/15 00:40:47;;;;;;;19.53;13.87;;;;;;;;;;5131875;27;20474;-80
2021/10/15 00:43:14;;;;;;;20.40;15.27;;;;;;;;;;5130225;27;20877;-80
2021/10/15 00:45:41;;;;;;;18.70;14.77;;;;;;;;;;5131239;27;20526;-80
2021/10/15 00:48:08;;;;;;;13.33;11.70;;;;;;;;;;5116528;27;20887;-80
2021/10/15 00:50:35;;;;;;;22.50;14.27;;;;;;;;;;5110957;28;20487;-80
2021/10/15 00:53:03;;;;;;;17.40;14.33;;;;;;;;;;5111214;28;20475;-80
2021/10/15 00:55:31;;;;;;;18.33;12.73;;;;;;;;;;5111421;28;20643;-80
2021/10/15 00:57:58;;;;;;;15.63;11.73;;;;;;;;;;5110545;28;20487;-80
2021/10/15 01:00:25;;;;;;;18.57;11.93;;;;;;;;;;5111317;28;20490;-80
2021/10/15 01:02:52;;;;;;;16.47;12.33;;;;;;;;;;5123130;27;20471;-80
2021/10/15 01:05:19;;;;;;;20.70;12.57;;;;;;;;;;5130173;27;20471;-80
2021/10/15 01:07:46;;;;;;;17.20;11.00;;;;;;;;;;5130291;27;20466;-80
2021/10/15 01:10:13;;;;;;;14.80;10.30;;;;;;;;;;5128978;27;20487;-80
2021/10/15 01:12:41;;;;;;;16.50;12.77;;;;;;;;;;5131148;27;20493;-80
2021/10/15 01:15:09;;;;;;;15.43;11.07;;;;;;;;;;5130450;27;20459;-80
2021/10/15 01:17:36;;;;;;;15.00;11.33;;;;;;;;;;5130137;27;20439;-80
2021/10/15 01:20:04;;;;;;;14.47;10.37;;;;;;;;;;5129593;27;20450;-80
2021/10/15 01:22:32;;;;;;;17.53;11.93;;;;;;;;;;5128148;27;20502;-80
2021/10/15 01:24:59;;;;;;;17.20;11.00;;;;;;;;;;5128628;27;20493;-80
2021/10/15 01:27:26;;;;;;;16.40;11.33;;;;;;;;;;5127440;27;20506;-80
2021/10/15 01:29:54;;;;;;;16.30;11.60;;;;;;;;;;5123891;27;20521;-79
2021/10/15 01:32:21;;;;;;;14.80;10.00;;;;;;;;;;5123726;27;20478;-80
2021/10/15 01:34:48;;;;;;;15.40;11.63;;;;;;;;;;5124216;27;20475;-79
2021/10/15 01:37:16;;;;;;;12.50;10.00;;;;;;;;;;5123643;27;20442;-79
2021/10/15 01:39:43;;;;;;;12.97;10.07;;;;;;;;;;5124740;27;20538;-79
2021/10/15 01:42:53;;;;;;;14.23;11.00;;;;;;;;;;5129479;27;20462;-80
2021/10/15 01:44:57;;;;;;;13.63;8.77;;;;;;;;;;5128648;27;20451;-79
2021/10/15 01:47:24;;;;;;;12.00;8.77;;;;;;;;;;5127734;27;20454;-79
2021/10/15 01:49:51;;;;;;;13.57;9.97;;;;;;;;;;5127696;27;20585;-80
2021/10/15 01:52:19;;;;;;;9.90;7.80;;;;;;;;;;5128748;27;20669;-80
2021/10/15 01:54:46;;;;;;;11.17;8.77;;;;;;;;;;5128360;27;20458;-80
2021/10/15 01:57:13;;;;;;;16.20;10.73;;;;;;;;;;5127536;27;20470;-80
2021/10/15 01:59:40;;;;;;;15.90;9.40;;;;;;;;;;5127833;27;20489;-80
2021/10/15 02:02:07;;;;;;;12.00;7.90;;;;;;;;;;5127056;27;20486;-79
2021/10/15 02:04:34;;;;;;;11.73;8.40;;;;;;;;;;5126559;27;20478;-80
2021/10/15 02:07:01;;;;;;;10.53;7.97;;;;;;;;;;5127462;27;20475;-80
2021/10/15 02:09:28;;;;;;;12.10;9.00;;;;;;;;;;5129917;27;20523;-80
2021/10/15 02:11:55;;;;;;;11.20;6.77;;;;;;;;;;5134271;27;20459;-80
2021/10/15 02:14:22;;;;;;;14.83;9.03;;;;;;;;;;5134463;27;20492;-80
2021/10/15 02:16:49;;;;;;;14.40;10.47;;;;;;;;;;5132275;27;20467;-80
2021/10/15 02:19:16;;;;;;;8.17;5.93;;;;;;;;;;5132907;27;20470;-80
2021/10/15 02:21:43;;;;;;;14.27;8.67;;;;;;;;;;5132164;27;20550;-79
2021/10/15 02:24:10;;;;;;;7.70;6.83;;;;;;;;;;5132666;27;20481;-80
2021/10/15 02:26:38;;;;;;;12.53;9.17;;;;;;;;;;5132772;27;20474;-80
2021/10/15 02:29:05;;;;;;;13.87;8.83;;;;;;;;;;5131664;27;20482;-80
2021/10/15 02:31:33;;;;;;;12.87;9.10;;;;;;;;;;5132039;27;20479;-80
2021/10/15 02:34:00;;;;;;;14.83;8.17;;;;;;;;;;5133231;27;20478;-80
2021/10/15 02:36:27;;;;;;;11.77;8.07;;;;;;;;;;5132112;27;20466;-80
2021/10/15 02:38:54;;;;;;;14.40;9.03;;;;;;;;;;5131734;27;20478;-80
2021/10/15 02:41:21;;;;;;;11.70;9.03;;;;;;;;;;5130873;27;20502;-80
2021/10/15 02:43:48;;;;;;;18.00;9.90;;;;;;;;;;5131216;27;20476;-80
2021/10/15 02:46:16;;;;;;;10.73;8.53;;;;;;;;;;5129460;27;20512;-80
2021/10/15 02:48:43;;;;;;;13.17;8.97;;;;;;;;;;5131588;27;20453;-79
2021/10/15 02:51:16;;;;;;;13.77;8.63;;;;;;;;;;5129479;27;20493;-80
2021/10/15 02:53:43;;;;;;;23.53;10.93;;;;;;;;;;5128104;27;20570;-80
2021/10/15 02:56:10;;;;;;;11.40;8.90;;;;;;;;;;5127559;27;20499;-80
2021/10/15 02:58:37;;;;;;;12.10;8.50;;;;;;;;;;5125239;27;20506;-80
2021/10/15 03:01:05;;;;;;;11.10;8.50;;;;;;;;;;5131776;27;20663;-80
2021/10/15 03:03:32;;;;;;;12.30;8.80;;;;;;;;;;5131580;27;20817;-80
2021/10/15 03:05:59;;;;;;;13.00;8.60;;;;;;;;;;5131657;27;20492;-80
2021/10/15 03:08:26;;;;;;;11.80;8.97;;;;;;;;;;5132655;27;20474;-79
2021/10/15 03:10:53;;;;;;;12.20;8.90;;;;;;;;;;5130793;27;20498;-79
2021/10/15 03:13:20;;;;;;;10.97;6.90;;;;;;;;;;5131824;27;20453;-80
2021/10/15 03:15:47;;;;;;;11.80;7.13;;;;;;;;;;5132554;27;20483;-80
2021/10/15 03:18:15;;;;;;;13.20;8.80;;;;;;;;;;5130964;27;20478;-80
2021/10/15 03:20:42;;;;;;;14.63;8.60;;;;;;;;;;5132494;27;20493;-80
2021/10/15 03:23:09;;;;;;;16.93;10.27;;;;;;;;;;5131248;27;20515;-80
2021/10/15 03:25:36;;;;;;;11.40;8.73;;;;;;;;;;5131736;27;20485;-80
2021/10/15 03:28:03;;;;;;;7.17;5.43;;;;;;;;;;5126781;27;20440;-80
2021/10/15 03:30:30;;;;;;;9.37;5.90;;;;;;;;;;5090520;28;20952;-79
2021/10/15 03:32:57;;;;;;;15.53;8.83;;;;;;;;;;5091482;28;20455;-80
2021/10/15 03:35:24;;;;;;;11.23;7.73;;;;;;;;;;5088809;28;20476;-80
2021/10/15 03:37:51;;;;;;;9.33;5.30;;;;;;;;;;5089680;28;20491;-80
2021/10/15 03:40:19;;;;;;;9.03;6.97;;;;;;;;;;5090047;28;20544;-80
2021/10/15 03:42:46;;;;;;;17.50;7.33;;;;;;;;;;5089066;28;20483;-80
2021/10/15 03:45:13;;;;;;;6.63;4.33;;;;;;;;;;5090151;28;20487;-80
2021/10/15 03:47:40;;;;;;;7.70;5.10;;;;;;;;;;5091145;28;20453;-80
2021/10/15 03:50:08;;;;;;;13.30;8.10;;;;;;;;;;5090622;28;20495;-80
2021/10/15 03:52:36;;;;;;;10.00;5.90;;;;;;;;;;5091608;28;20813;-80
2021/10/15 03:55:03;;;;;;;8.17;5.93;;;;;;;;;;5090686;28;20460;-81
2021/10/15 03:57:30;;;;;;;8.70;6.43;;;;;;;;;;5093776;28;20439;-80
2021/10/15 03:59:57;;;;;;;6.90;4.77;;;;;;;;;;5124121;28;20462;-80
2021/10/15 04:02:24;;;;;;;12.20;6.23;;;;;;;;;;5110495;28;20451;-80
2021/10/15 04:04:51;;;;;;;12.77;6.70;;;;;;;;;;5110184;28;20431;-79
2021/10/15 04:07:18;;;;;;;14.90;6.90;;;;;;;;;;5111141;28;20472;-80
2021/10/15 04:09:46;;;;;;;16.50;6.97;;;;;;;;;;5110371;28;20507;-80
2021/10/15 04:12:14;;;;;;;13.80;7.50;;;;;;;;;;5110861;28;20543;-80
2021/10/15 04:14:41;;;;;;;9.07;6.10;;;;;;;;;;5110156;28;20712;-80
2021/10/15 04:17:08;;;;;;;9.43;5.43;;;;;;;;;;5110390;28;20452;-79
2021/10/15 04:19:35;;;;;;;15.07;7.40;;;;;;;;;;5110157;28;20485;-80
2021/10/15 04:22:02;;;;;;;9.03;5.67;;;;;;;;;;5111532;28;20516;-79
2021/10/15 04:24:29;;;;;;;8.33;5.40;;;;;;;;;;5109334;28;20472;-79
2021/10/15 04:26:56;;;;;;;12.10;6.17;;;;;;;;;;5109335;28;20487;-79
2021/10/15 04:29:24;;;;;;;12.43;6.50;;;;;;;;;;5107946;28;20487;-79
2021/10/15 04:31:51;;;;;;;8.93;5.27;;;;;;;;;;5110753;28;20463;-79
2021/10/15 04:34:18;;;;;;;13.80;7.40;;;;;;;;;;5110646;28;20484;-79
2021/10/15 04:36:46;;;;;;;9.80;4.87;;;;;;;;;;5111619;28;20518;-79
2021/10/15 04:39:13;;;;;;;8.90;7.10;;;;;;;;;;5108732;28;20464;-80
2021/10/15 04:41:40;;;;;;;7.67;5.80;;;;;;;;;;5108815;28;20458;-78
2021/10/15 04:44:08;;;;;;;8.43;5.27;;;;;;;;;;5109480;28;20485;-79
2021/10/15 04:46:35;;;;;;;15.87;6.10;;;;;;;;;;5107810;28;21061;-80
2021/10/15 04:49:02;;;;;;;12.67;6.03;;;;;;;;;;5111216;28;20490;-81
2021/10/15 04:51:29;;;;;;;10.03;6.63;;;;;;;;;;5109458;28;21305;-80
2021/10/15 04:53:56;;;;;;;9.43;7.20;;;;;;;;;;5109052;28;20762;-80
2021/10/15 04:56:23;;;;;;;11.17;6.03;;;;;;;;;;5108712;28;20455;-80
2021/10/15 04:58:50;;;;;;;12.87;6.87;;;;;;;;;;5121267;27;20454;-80
2021/10/15 05:01:18;;;;;;;9.97;4.83;;;;;;;;;;5128190;27;20450;-81
2021/10/15 05:03:45;;;;;;;8.73;6.60;;;;;;;;;;5129242;27;20866;-81
2021/10/15 05:06:14;;;;;;;14.03;6.67;;;;;;;;;;5125441;27;20454;-79
2021/10/15 05:08:50;;;;;;;8.07;5.20;;;;;;;;;;5106615;28;20478;-79
2021/10/15 05:11:17;;;;;;;8.20;5.47;;;;;;;;;;5107133;28;20487;-81
2021/10/15 05:13:44;;;;;;;9.73;6.10;;;;;;;;;;5108271;28;20452;-79
2021/10/15 05:16:11;;;;;;;9.17;5.83;;;;;;;;;;5107879;28;20446;-79
2021/10/15 05:18:39;;;;;;;4.13;3.67;;;;;;;;;;5109086;28;20447;-79
2021/10/15 05:21:07;;;;;;;8.17;6.00;;;;;;;;;;5106557;28;20976;-79
2021/10/15 05:23:34;;;;;;;10.20;6.60;;;;;;;;;;5105946;28;20452;-79
2021/10/15 05:26:01;;;;;;;7.37;4.90;;;;;;;;;;5097630;28;20455;-79
2021/10/15 05:28:29;;;;;;;9.03;6.70;;;;;;;;;;5086577;28;20449;-80
2021/10/15 05:30:57;;;;;;;9.80;6.50;;;;;;;;;;5102110;28;20512;-78
2021/10/15 05:33:24;;;;;;;9.97;5.90;;;;;;;;;;5107521;28;20452;-79
2021/10/15 05:35:52;;;;;;;9.20;5.60;;;;;;;;;;5108960;28;20454;-80
2021/10/15 05:38:19;;;;;;;7.20;5.37;;;;;;;;;;5108058;28;20475;-79
2021/10/15 05:40:46;;;;;;;8.60;5.63;;;;;;;;;;5109232;28;20498;-80
2021/10/15 05:43:12;;;;;;;7.43;5.00;;;;;;;;;;5107640;28;20538;-79
2021/10/15 05:45:39;;;;;;;13.93;6.87;;;;;;;;;;5105033;28;20528;-79
2021/10/15 05:48:07;;;;;;;7.67;4.57;;;;;;;;;;5107663;28;20455;-79
2021/10/15 05:50:34;;;;;;;7.67;5.13;;;;;;;;;;5107119;28;20491;-79
2021/10/15 05:53:06;;;;;;;10.80;5.50;;;;;;;;;;5107966;28;20516;-80
2021/10/15 05:55:39;;;;;;;7.53;5.57;;;;;;;;;;5109660;28;20455;-80
2021/10/15 06:00:47;;;;;;;8.40;4.73;;;;;;;;;;5107645;28;20439;-80
2021/10/15 06:03:15;;;;;;;9.23;5.83;;;;;;;;;;5108631;28;20447;-81
2021/10/15 06:16:51;;;;;;;6.57;4.10;;;;;;;;;;5109183;28;20451;-79
2021/10/15 06:19:19;;;;;;;8.47;5.40;;;;;;;;;;5108440;28;20446;-79
2021/10/15 06:21:46;;;;;;;4.40;4.00;;;;;;;;;;5107334;28;20453;-80
2021/10/15 06:24:14;;;;;;;4.13;3.73;;;;;;;;;;5107277;28;20471;-81
2021/10/15 06:26:41;;;;;;;6.83;5.10;;;;;;;;;;5106730;28;20532;-80
2021/10/15 06:29:09;;;;;;;7.47;4.73;;;;;;;;;;5124744;27;20460;-80
2021/10/15 06:31:35;;;;;;;6.17;3.53;;;;;;;;;;5132022;27;20426;-80
2021/10/15 06:34:03;;;;;;;7.60;4.97;;;;;;;;;;5130178;27;20712;-80
2021/10/15 06:36:30;;;;;;;6.33;3.73;;;;;;;;;;5131383;27;20448;-82
2021/10/15 06:39:01;;;;;;;8.87;5.50;;;;;;;;;;5129726;27;20454;-80
2021/10/15 06:41:29;;;;;;;5.97;4.57;;;;;;;;;;5132730;27;21089;-80
2021/10/15 06:43:56;;;;;;;8.10;3.67;;;;;;;;;;5128547;27;20496;-80
2021/10/15 06:46:23;;;;;;;13.00;3.53;;;;;;;;;;5129933;27;20447;-80
2021/10/15 06:48:50;;;;;;;9.00;2.17;;;;;;;;;;5132170;27;20496;-80
2021/10/15 06:51:17;;;;;;;9.77;4.70;;;;;;;;;;5127832;27;20514;-80
2021/10/15 06:53:45;;;;;;;7.43;4.03;;;;;;;;;;5130698;27;20455;-81
2021/10/15 06:56:12;;;;;;;5.20;2.73;;;;;;;;;;5129894;27;20451;-80
2021/10/15 06:58:40;;;;;;;13.20;5.10;;;;;;;;;;5129343;27;20525;-81
2021/10/15 07:01:07;;;;;;;5.20;3.50;;;;;;;;;;5131686;27;20466;-80
2021/10/15 07:03:34;;;;;;;5.40;3.87;;;;;;;;;;5121020;27;20472;-80
2021/10/15 07:06:01;;;;;;;5.50;3.50;;;;;;;;;;5118575;28;20867;-81
2021/10/15 07:08:28;;;;;;;9.23;4.10;;;;;;;;;;5104476;28;20502;-79
2021/10/15 07:10:55;;;;;;;8.50;4.30;;;;;;;;;;5108018;28;20577;-79
2021/10/15 07:13:22;;;;;;;6.47;4.30;;;;;;;;;;5110418;28;20463;-78
2021/10/15 07:15:50;;;;;;;5.70;3.83;;;;;;;;;;5109451;28;20505;-82
2021/10/15 07:18:17;;;;;;;2.23;1.77;;;;;;;;;;5111011;28;20464;-81
2021/10/15 07:20:44;;;;;;;8.90;4.83;;;;;;;;;;5109518;28;20474;-81
2021/10/15 07:23:12;;;;;;;3.63;2.80;;;;;;;;;;5110491;28;20883;-80
2021/10/15 07:25:39;;;;;;;6.37;4.17;;;;;;;;;;5108111;28;20447;-80
2021/10/15 07:28:07;;;;;;;7.53;4.03;;;;;;;;;;5108610;28;21068;-80
2021/10/15 07:30:34;;;;;;;6.17;4.73;;;;;;;;;;5109750;28;20560;-79
2021/10/15 07:33:02;;;;;;;7.40;4.20;;;;;;;;;;5117774;28;20463;-80
2021/10/15 07:35:45;;;;;;;9.13;4.00;;;;;;;;;;5127042;27;20458;-80
2021/10/15 07:38:37;;;;;;;4.30;2.53;;;;;;;;;;5108415;28;20440;-80
2021/10/15 07:41:22;;;;;;;7.07;4.53;;;;;;;;;;5111354;28;20489;-81
2021/10/15 07:44:10;;;;;;;6.10;4.73;;;;;;;;;;5112769;28;20451;-82
2021/10/15 07:46:57;;;;;;;9.67;6.47;;;;;;;;;;5112782;28;20485;-83
2021/10/15 07:49:25;;;;;;;11.37;5.47;;;;;;;;;;5110380;28;20455;-80
2021/10/15 07:51:52;;;;;;;14.23;6.30;;;;;;;;;;5032126;28;1390291;-81
2021/10/15 07:54:23;;;;;;;6.60;3.13;;;;;;;;;;5064982;28;20199;-81
2021/10/15 07:56:56;;;;;;;4.77;3.43;;;;;;;;;;5068081;28;20453;-81
2021/10/15 07:59:24;;;;;;;4.40;3.63;;;;;;;;;;5067516;28;20841;-79
2021/10/15 08:01:51;;;;;;;4.03;2.30;;;;;;;;;;5066712;28;20550;-81
2021/10/15 08:04:20;;;;;;;2.50;1.60;;;;;;;;;;5072252;28;20713;-81
2021/10/15 08:06:50;;;;;;;3.83;2.70;;;;;;;;;;5072056;28;20464;-80
2021/10/15 08:09:23;;;;;;;3.37;2.40;;;;;;;;;;5073036;28;20448;-81
2021/10/15 08:11:51;;;;;;;2.80;1.50;;;;;;;;;;5069732;28;20457;-80
2021/10/15 08:14:20;;;;;;;1.60;0.90;;;;;;;;;;5071182;28;20485;-81
2021/10/15 08:16:48;;;;;;;1.60;1.10;;;;;;;;;;5071443;28;20526;-81
2021/10/15 08:19:16;;;;;;;1.60;1.00;;;;;;;;;;5071496;28;20460;-81
2021/10/15 08:21:44;;;;;;;3.63;1.10;;;;;;;;;;5071085;28;20488;-81
2021/10/15 08:24:19;;;;;;;1.20;0.70;;;;;;;;;;5070968;28;20536;-80
2021/10/15 08:26:48;;;;;;;1.20;0.60;;;;;;;;;;5067378;28;20619;-82
2021/10/15 08:29:15;;;;;;;1.93;0.83;;;;;;;;;;5068433;28;20449;-81
2021/10/15 08:31:43;;;;;;;1.23;0.63;;;;;;;;;;5070982;28;20493;-81
2021/10/15 08:34:12;;;;;;;1.90;0.80;;;;;;;;;;5071456;28;20483;-82
2021/10/15 08:36:43;;;;;;;1.30;0.60;;;;;;;;;;5057455;28;20458;-82
2021/10/15 08:39:11;;;;;;;1.80;1.10;;;;;;;;;;5067351;28;20465;-82
2021/10/15 08:41:45;;;;;;;1.77;1.10;;;;;;;;;;5066864;28;20513;-79
2021/10/15 08:44:17;;;;;;;3.40;1.00;;;;;;;;;;5047504;28;20446;-81
2021/10/15 08:46:45;;;;;;;1.73;0.90;;;;;;;;;;5047526;28;20564;-80
2021/10/15 08:49:12;;;;;;;1.50;0.80;;;;;;;;;;5046439;28;20460;-81
2021/10/15 08:51:52;;;;;;;1.17;0.70;;;;;;;;;;5062211;28;20481;-81
2021/10/15 08:54:19;;;;;;;2.40;1.30;;;;;;;;;;5088901;28;20450;-81
2021/10/15 08:56:48;;;;;;;6.70;1.53;;;;;;;;;;5089132;28;20558;-79
2021/10/15 08:59:20;;;;;;;2.07;1.30;;;;;;;;;;5083199;28;20464;-80
2021/10/15 09:01:49;;;;;;;1.93;0.97;;;;;;;;;;5069422;28;20571;-80
2021/10/15 09:04:18;;;;;;;3.17;1.10;;;;;;;;;;5067618;28;20451;-81
2021/10/15 09:06:47;;;;;;;1.90;1.20;;;;;;;;;;5067023;28;20904;-81
2021/10/15 09:09:15;;;;;;;4.50;1.57;;;;;;;;;;5068301;28;20449;-80
2021/10/15 09:11:46;;;;;;;2.10;0.97;;;;;;;;;;5068504;28;20523;-82
2021/10/15 09:14:16;;;;;;;1.20;0.80;;;;;;;;;;5068456;28;20805;-81
2021/10/15 09:17:09;;;;;;;1.73;0.93;;;;;;;;;;5069157;28;20469;-81
2021/10/15 09:19:40;;;;;;;1.77;0.90;;;;;;;;;;5052633;28;20476;-81
2021/10/15 09:22:17;;;;;;;2.50;0.93;;;;;;;;;;5068084;28;20652;-81
2021/10/15 09:24:46;;;;;;;1.37;0.83;;;;;;;;;;5066707;28;20480;-80
2021/10/15 09:27:14;;;;;;;2.27;1.00;;;;;;;;;;5067887;28;20460;-81
2021/10/15 09:29:46;;;;;;;3.87;0.93;;;;;;;;;;5071550;28;20434;-80
2021/10/15 09:32:15;;;;;;;2.13;1.00;;;;;;;;;;5069045;28;20445;-79
2021/10/15 09:34:43;;;;;;;3.40;1.07;;;;;;;;;;5067340;28;20457;-83
2021/10/15 09:37:14;;;;;;;2.40;1.30;;;;;;;;;;5068943;28;20453;-81
2021/10/15 09:39:42;;;;;;;1.97;0.93;;;;;;;;;;5068072;28;20485;-81
2021/10/15 09:42:20;;;;;;;3.83;1.27;;;;;;;;;;5068420;28;20438;-81
2021/10/15 09:44:50;;;;;;;2.00;0.90;;;;;;;;;;5060743;28;20537;-81
2021/10/15 09:47:44;;;;;;;3.33;1.00;;;;;;;;;;5053849;28;20467;-80
2021/10/15 09:50:18;;;;;;;6.00;1.50;;;;;;;;;;5072090;28;20513;-80
2021/10/15 09:52:46;;;;;;;3.47;1.07;;;;;;;;;;5067131;28;20535;-82
2021/10/15 09:55:19;;;;;;;3.50;1.27;;;;;;;;;;5063617;28;20457;-81
2021/10/15 09:57:48;;;;;;;3.40;1.27;;;;;;;;;;5067215;28;20488;-81
2021/10/15 10:00:20;;;;;;;2.20;1.10;;;;;;;;;;5065590;28;20438;-81
2021/10/15 10:02:48;;;;;;;3.87;1.00;;;;;;;;;;5067906;28;20457;-81
2021/10/15 10:05:16;;;;;;;2.67;1.00;;;;;;;;;;5072199;28;20584;-81
2021/10/15 10:07:45;;;;;;;1.60;0.67;;;;;;;;;;5071463;28;20468;-79
2021/10/15 10:10:14;;;;;;;4.77;1.20;;;;;;;;;;5071353;28;20453;-80
2021/10/15 10:12:45;;;;;;;1.60;1.10;;;;;;;;;;5069924;28;20449;-80
2021/10/15 10:15:20;;;;;;;1.93;0.70;;;;;;;;;;5070647;28;20497;-80
2021/10/15 10:17:52;;;;;;;3.90;1.00;;;;;;;;;;5073505;28;20453;-81
2021/10/15 10:20:23;;;;;;;3.93;1.27;;;;;;;;;;5070938;28;20487;-81
2021/10/15 10:22:56;;;;;;;5.10;1.37;;;;;;;;;;5070944;28;20457;-81
2021/10/15 10:25:25;;;;;;;3.63;0.93;;;;;;;;;;5070422;28;20465;-80
2021/10/15 10:27:57;;;;;;;8.00;2.60;;;;;;;;;;5070760;28;20505;-80
2021/10/15 10:30:38;;;;;;;4.70;1.30;;;;;;;;;;5066744;28;20477;-79
2021/10/15 10:33:13;;;;;;;2.73;2.13;;;;;;;;;;5062172;28;20472;-78
2021/10/15 10:35:42;;;;;;;2.40;1.50;;;;;;;;;;5069521;28;20457;-80
2021/10/15 10:38:37;;;;;;;6.10;1.90;;;;;;;;;;5068977;28;20465;-80
2021/10/15 10:41:26;;;;;;;4.40;2.17;;;;;;;;;;5072222;28;20952;-79
2021/10/15 10:44:15;;;;;;;3.40;1.00;;;;;;;;;;5069595;28;20460;-80
2021/10/15 10:47:16;;;;;;;4.63;1.30;;;;;;;;;;5063165;28;20453;-80
2021/10/15 10:50:05;;;;;;;1.67;0.83;;;;;;;;;;5033750;28;20968;-80
2021/10/15 10:52:34;;;;;;;4.17;2.13;;;;;;;;;;5059532;28;20461;-82
2021/10/15 10:55:02;;;;;;;9.13;2.23;;;;;;;;;;5065838;28;20523;-79
2021/10/15 10:57:33;;;;;;;7.87;2.50;;;;;;;;;;5065941;28;20500;-79
2021/10/15 11:00:19;;;;;;;3.00;1.10;;;;;;;;;;5069641;28;20460;-80
2021/10/15 11:02:53;;;;;;;5.33;1.83;;;;;;;;;;5068702;28;20548;-81
2021/10/15 11:05:39;;;;;;;5.63;2.53;;;;;;;;;;5069428;28;20456;-80
2021/10/15 11:08:30;;;;;;;5.27;1.50;;;;;;;;;;5054524;28;20473;-80
2021/10/15 11:11:18;;;;;;;5.10;1.60;;;;;;;;;;5075919;28;20476;-79
2021/10/15 11:13:53;;;;;;;6.33;1.50;;;;;;;;;;5068811;28;20456;-80
2021/10/15 11:16:40;;;;;;;15.03;1.70;;;;;;;;;;5083863;28;20460;-81
2021/10/15 11:19:09;;;;;;;5.43;1.40;;;;;;;;;;5065098;28;20476;-79
2021/10/15 11:21:39;;;;;;;7.80;1.20;;;;;;;;;;5064993;28;20454;-83
2021/10/15 11:24:14;;;;;;;6.53;1.90;;;;;;;;;;5068340;28;20457;-79
2021/10/15 11:26:42;;;;;;;7.80;1.57;;;;;;;;;;5059736;28;20479;-78
2021/10/15 11:29:09;;;;;;;3.93;0.97;;;;;;;;;;5063858;28;20464;-78
2021/10/15 11:31:39;;;;;;;3.93;1.20;;;;;;;;;;5075260;28;20535;-78
2021/10/15 11:34:10;;;;;;;2.93;1.37;;;;;;;;;;5077793;28;20491;-81
2021/10/15 11:36:39;;;;;;;4.77;1.97;;;;;;;;;;5089183;28;20527;-80
2021/10/15 11:39:09;;;;;;;6.23;1.40;;;;;;;;;;5071705;28;20480;-80
2021/10/15 11:41:49;;;;;;;5.87;1.47;;;;;;;;;;5068390;28;20458;-80
2021/10/15 11:44:19;;;;;;;8.90;1.70;;;;;;;;;;5063343;28;20483;-80
2021/10/15 11:46:47;;;;;;;7.77;1.00;;;;;;;;;;5080617;28;20466;-81
2021/10/15 11:49:15;;;;;;;7.63;2.43;;;;;;;;;;5074980;28;20472;-80
2021/10/15 11:51:48;;;;;;;10.40;1.80;;;;;;;;;;5074918;28;20515;-81
2021/10/15 11:54:20;;;;;;;6.03;1.83;;;;;;;;;;5066405;28;20465;-80
2021/10/15 11:56:47;;;;;;;5.20;1.33;;;;;;;;;;5059603;28;20458;-80
2021/10/15 11:59:21;;;;;;;5.37;1.30;;;;;;;;;;5065336;28;20525;-79
2021/10/15 12:01:56;;;;;;;14.10;2.03;;;;;;;;;;5059075;28;20454;-82
2021/10/15 12:04:26;;;;;;;4.33;1.07;;;;;;;;;;5062177;28;20468;-81
2021/10/15 12:06:55;;;;;;;13.53;1.90;;;;;;;;;;5049609;28;20575;-80
2021/10/15 12:09:24;;;;;;;4.37;1.60;;;;;;;;;;5057604;28;20526;-79
2021/10/15 12:11:57;;;;;;;5.37;1.30;;;;;;;;;;5053972;28;20490;-80
2021/10/15 12:14:30;;;;;;;8.20;2.63;;;;;;;;;;5070846;28;20442;-81
2021/10/15 12:17:39;;;;;;;5.23;1.80;;;;;;;;;;5074625;28;20505;-79
2021/10/15 12:20:07;;;;;;;12.20;1.90;;;;;;;;;;5051934;28;20457;-79
2021/10/15 12:22:44;;;;;;;4.67;1.37;;;;;;;;;;5063998;28;20476;-80
2021/10/15 12:25:20;;;;;;;8.43;2.53;;;;;;;;;;5059253;28;20933;-79
2021/10/15 12:27:55;;;;;;;11.13;1.40;;;;;;;;;;5066988;28;20453;-78
2021/10/15 12:30:25;;;;;;;7.27;1.30;;;;;;;;;;5065424;28;20449;-79
2021/10/15 12:32:53;;;;;;;4.87;1.87;;;;;;;;;;5071635;28;20483;-80
2021/10/15 12:35:24;;;;;;;4.27;1.50;;;;;;;;;;5060926;28;20664;-79
2021/10/15 12:37:57;;;;;;;8.30;1.37;;;;;;;;;;5056458;28;20484;-80
2021/10/15 12:40:29;;;;;;;2.83;0.80;;;;;;;;;;5064631;28;20449;-78
2021/10/15 12:43:08;;;;;;;5.50;1.33;;;;;;;;;;5069544;28;20491;-79
2021/10/15 12:45:37;;;;;;;4.27;1.80;;;;;;;;;;5062970;28;21030;-80
2021/10/15 12:48:06;;;;;;;8.07;2.13;;;;;;;;;;5065089;28;20476;-79
2021/10/15 12:50:35;;;;;;;9.30;2.40;;;;;;;;;;5080551;28;21080;-80
2021/10/15 12:53:21;;;;;;;11.63;1.37;;;;;;;;;;5085159;28;20838;-82
2021/10/15 12:55:50;;;;;;;5.27;1.67;;;;;;;;;;5058392;28;20524;-81
2021/10/15 12:58:18;;;;;;;4.50;1.10;;;;;;;;;;5064609;28;20504;-80
2021/10/15 13:01:00;;;;;;;2.10;1.07;;;;;;;;;;5057921;28;20457;-78
2021/10/15 13:03:28;;;;;;;3.30;1.10;;;;;;;;;;5067270;28;20548;-81
2021/10/15 13:05:56;;;;;;;1.30;0.60;;;;;;;;;;5066551;28;20481;-79
2021/10/15 13:08:27;;;;;;;6.63;1.53;;;;;;;;;;5060809;28;20443;-79
2021/10/15 13:10:55;;;;;;;3.77;1.30;;;;;;;;;;5057081;28;21099;-81
2021/10/15 13:13:22;;;;;;;4.23;1.37;;;;;;;;;;5065558;28;20468;-79
2021/10/15 13:15:50;;;;;;;6.63;1.23;;;;;;;;;;5067304;28;20460;-79
2021/10/15 13:18:18;;;;;;;13.77;1.30;;;;;;;;;;5061047;28;20461;-79
2021/10/15 13:20:47;;;;;;;4.37;1.37;;;;;;;;;;5063747;28;20457;-77
2021/10/15 13:23:14;;;;;;;3.10;0.87;;;;;;;;;;5065984;28;20445;-80
2021/10/15 13:25:46;;;;;;;6.87;1.30;;;;;;;;;;5068736;28;20457;-80
2021/10/15 13:28:14;;;;;;;3.83;1.10;;;;;;;;;;5050808;28;20454;-79
2021/10/15 13:30:45;;;;;;;4.83;1.47;;;;;;;;;;5056185;28;21028;-81
2021/10/15 13:33:13;;;;;;;4.07;1.90;;;;;;;;;;5061796;28;20992;-79
2021/10/15 13:35:45;;;;;;;12.73;1.83;;;;;;;;;;5065004;28;20508;-79
2021/10/15 13:38:15;;;;;;;8.13;3.40;;;;;;;;;;5052030;28;20480;-79
2021/10/15 13:40:54;;;;;;;3.97;1.10;;;;;;;;;;5043434;28;20458;-79
2021/10/15 13:43:29;;;;;;;4.70;1.37;;;;;;;;;;5047907;28;20500;-79
2021/10/15 13:46:07;;;;;;;6.53;1.20;;;;;;;;;;5062072;28;20465;-80
2021/10/15 13:51:22;;;;;;;6.27;2.63;;;;;;;;;;5059898;28;20481;-80
2021/10/15 13:53:51;;;;;;;4.93;1.53;;;;;;;;;;5047124;28;20592;-81
2021/10/15 13:56:23;;;;;;;5.57;2.60;;;;;;;;;;5059079;28;20536;-80
2021/10/15 13:58:52;;;;;;;13.80;1.53;;;;;;;;;;5064042;28;20442;-81
2021/10/15 14:01:23;;;;;;;10.10;2.40;;;;;;;;;;5061411;28;20487;-82
2021/10/15 14:04:15;;;;;;;8.27;1.63;;;;;;;;;;5056923;28;20489;-81
2021/10/15 14:06:44;;;;;;;5.40;1.77;;;;;;;;;;5056464;28;20850;-81
2021/10/15 14:09:15;;;;;;;4.13;1.63;;;;;;;;;;5058814;28;20441;-80
2021/10/15 14:11:45;;;;;;;7.37;1.60;;;;;;;;;;5063949;28;20485;-80
2021/10/15 14:14:15;;;;;;;4.47;1.47;;;;;;;;;;5062968;28;20490;-78
2021/10/15 14:16:43;;;;;;;4.40;1.27;;;;;;;;;;5060924;28;20487;-80
2021/10/15 14:19:12;;;;;;;7.63;1.90;;;;;;;;;;5060751;28;20462;-80
2021/10/15 14:21:44;;;;;;;3.67;1.20;;;;;;;;;;5062900;28;20739;-80
2021/10/15 14:24:26;;;;;;;8.93;1.30;;;;;;;;;;5061195;28;20874;-79
2021/10/15 14:27:13;;;;;;;7.80;1.80;;;;;;;;;;5060243;28;20540;-80
2021/10/15 14:29:52;;;;;;;3.33;1.67;;;;;;;;;;5064402;28;20463;-80
2021/10/15 14:32:27;;;;;;;10.33;1.17;;;;;;;;;;5067206;28;20530;-81
2021/10/15 14:34:56;;;;;;;8.13;1.87;;;;;;;;;;5064115;28;20659;-81
2021/10/15 14:37:31;;;;;;;2.70;1.10;;;;;;;;;;5063697;28;20455;-81
2021/10/15 14:40:04;;;;;;;7.63;1.50;;;;;;;;;;5062342;28;20513;-81
2021/10/15 14:42:35;;;;;;;2.90;0.93;;;;;;;;;;5060512;28;20517;-80
2021/10/15 14:45:08;;;;;;;10.40;1.00;;;;;;;;;;5064808;28;20449;-80
2021/10/15 14:47:50;;;;;;;5.73;1.30;;;;;;;;;;5064162;28;20450;-82
2021/10/15 14:50:24;;;;;;;5.00;0.87;;;;;;;;;;5067612;28;20586;-81
2021/10/15 14:52:53;;;;;;;6.60;1.40;;;;;;;;;;5071503;28;20543;-82
2021/10/15 14:55:26;;;;;;;5.63;1.47;;;;;;;;;;5062504;28;20454;-81
2021/10/15 14:57:55;;;;;;;17.50;1.83;;;;;;;;;;5078806;28;20476;-80
2021/10/15 15:00:27;;;;;;;7.87;1.60;;;;;;;;;;5067623;28;20461;-83
2021/10/15 15:02:56;;;;;;;13.00;1.63;;;;;;;;;;5066315;28;20446;-80
2021/10/15 15:05:26;;;;;;;7.27;1.53;;;;;;;;;;5066601;28;20484;-80
2021/10/15 15:08:00;;;;;;;6.00;1.17;;;;;;;;;;5068642;28;20463;-78
2021/10/15 15:10:31;;;;;;;5.07;1.67;;;;;;;;;;5089447;28;20448;-81